sensor_id;sensor_type;location;lat;lon;timestamp;pressure;altitude;pressure_sealevel;temperature;humidity
12536;BME280;6334;48.696;2.114;2022-11-02T00:00:26;100186.00;;;13.47;100.00
12536;BME280;6334;48.696;2.114;2022-11-02T00:03:01;100188.56;;;13.20;100.00
12536;BME280;6334;48.696;2.114;2022-11-02T00:05:55;100185.92;;;13.20;100.00
12536;BME280;6334;48.696;2.114;2022-11-02T00:09:49;100191.80;;;13.09;100.00
12536;BME280;6334;48.696;2.114;2022-11-02T00:12:36;100188.38;;;13.19;100.00
12536;BME280;6334;48.696;2.114;2022-11-02T00:15:06;100191.97;;;13.04;100.00
12536;BME280;6334;48.696;2.114;2022-11-02T00:17:49;100175.56;;;12.90;100.00
12536;BME280;6334;48.696;2.114;2022-11-02T00:24:10;100205.04;;;13.00;100.00
12536;BME280;6334;48.696;2.114;2022-11-02T00:27:15;100213.70;;;13.00;100.00
12536;BME280;6334;48.696;2.114;2022-11-02T00:29:52;100218.88;;;12.96;100.00
12536;BME280;6334;48.696;2.114;2022-11-02T00:34:04;100226.14;;;12.89;100.00
12536;BME280;6334;48.696;2.114;2022-11-02T00:36:46;100231.73;;;12.87;100.00
12536;BME280;6334;48.696;2.114;2022-11-02T00:39:22;100231.30;;;12.81;100.00
12536;BME280;6334;48.696;2.114;2022-11-02T00:41:59;100235.70;;;13.07;100.00
12536;BME280;6334;48.696;2.114;2022-11-02T00:44:30;100228.85;;;12.82;100.00
12536;BME280;6334;48.696;2.114;2022-11-02T00:48:45;100226.31;;;12.72;100.00
12536;BME280;6334;48.696;2.114;2022-11-02T00:51:17;100230.52;;;12.60;100.00
12536;BME280;6334;48.696;2.114;2022-11-02T00:53:53;100234.03;;;12.75;100.00
12536;BME280;6334;48.696;2.114;2022-11-02T00:56:27;100239.38;;;12.77;100.00
12536;BME280;6334;48.696;2.114;2022-11-02T00:59:18;100158.78;;;12.17;100.00
12536;BME280;6334;48.696;2.114;2022-11-02T01:01:48;100249.34;;;12.89;100.00
12536;BME280;6334;48.696;2.114;2022-11-02T01:19:54;100275.90;;;12.56;100.00
12536;BME280;6334;48.696;2.114;2022-11-02T01:22:27;100274.54;;;12.70;100.00
12536;BME280;6334;48.696;2.114;2022-11-02T01:25:26;100267.70;;;12.50;100.00
12536;BME280;6334;48.696;2.114;2022-11-02T01:28:16;100175.70;;;12.21;100.00
12536;BME280;6334;48.696;2.114;2022-11-02T01:32:41;100281.39;;;12.49;100.00
12536;BME280;6334;48.696;2.114;2022-11-02T01:38:01;100273.56;;;12.52;100.00
12536;BME280;6334;48.696;2.114;2022-11-02T01:40:38;100278.37;;;12.44;100.00
12536;BME280;6334;48.696;2.114;2022-11-02T01:43:20;100285.72;;;12.50;100.00
12536;BME280;6334;48.696;2.114;2022-11-02T01:50:13;100294.63;;;12.50;100.00
12536;BME280;6334;48.696;2.114;2022-11-02T01:53:34;100292.38;;;12.40;100.00
12536;BME280;6334;48.696;2.114;2022-11-02T01:56:06;100292.81;;;12.33;100.00
12536;BME280;6334;48.696;2.114;2022-11-02T01:59:56;100159.10;;;11.57;100.00
12536;BME280;6334;48.696;2.114;2022-11-02T02:02:24;100289.13;;;12.46;100.00
12536;BME280;6334;48.696;2.114;2022-11-02T02:05:04;100294.06;;;12.33;100.00
12536;BME280;6334;48.696;2.114;2022-11-02T02:07:39;100298.98;;;12.35;100.00
12536;BME280;6334;48.696;2.114;2022-11-02T02:10:14;100302.45;;;12.37;100.00
12536;BME280;6334;48.696;2.114;2022-11-02T02:13:06;100300.56;;;12.34;100.00
12536;BME280;6334;48.696;2.114;2022-11-02T02:15:49;100309.59;;;12.27;100.00
12536;BME280;6334;48.696;2.114;2022-11-02T02:18:47;100309.94;;;12.29;100.00
12536;BME280;6334;48.696;2.114;2022-11-02T02:31:59;100310.31;;;12.20;100.00
12536;BME280;6334;48.696;2.114;2022-11-02T02:34:53;100318.23;;;12.22;100.00
12536;BME280;6334;48.696;2.114;2022-11-02T02:37:44;100310.48;;;12.27;100.00
12536;BME280;6334;48.696;2.114;2022-11-02T02:40:36;100312.84;;;12.35;100.00
12536;BME280;6334;48.696;2.114;2022-11-02T02:43:30;100236.45;;;11.78;100.00
12536;BME280;6334;48.696;2.114;2022-11-02T02:48:03;100168.58;;;11.23;100.00
12536;BME280;6334;48.696;2.114;2022-11-02T02:51:09;100320.05;;;12.22;100.00
12536;BME280;6334;48.696;2.114;2022-11-02T02:53:56;100324.33;;;12.39;100.00
12536;BME280;6334;48.696;2.114;2022-11-02T02:57:34;100315.98;;;12.06;100.00
12536;BME280;6334;48.696;2.114;2022-11-02T03:00:20;100311.83;;;12.04;100.00
12536;BME280;6334;48.696;2.114;2022-11-02T03:02:56;100314.87;;;12.06;100.00
12536;BME280;6334;48.696;2.114;2022-11-02T03:06:45;100233.70;;;11.47;100.00
12536;BME280;6334;48.696;2.114;2022-11-02T03:11:30;100305.27;;;11.97;100.00
12536;BME280;6334;48.696;2.114;2022-11-02T03:17:09;100315.23;;;11.97;100.00
12536;BME280;6334;48.696;2.114;2022-11-02T03:23:50;100318.66;;;11.89;100.00
12536;BME280;6334;48.696;2.114;2022-11-02T03:27:38;100325.53;;;11.84;100.00
12536;BME280;6334;48.696;2.114;2022-11-02T03:30:22;100333.52;;;11.83;100.00
12536;BME280;6334;48.696;2.114;2022-11-02T03:33:25;100335.95;;;12.10;100.00
12536;BME280;6334;48.696;2.114;2022-11-02T03:35:55;100341.41;;;11.71;100.00
12536;BME280;6334;48.696;2.114;2022-11-02T03:41:29;100353.58;;;11.69;100.00
12536;BME280;6334;48.696;2.114;2022-11-02T03:44:14;100356.80;;;11.66;100.00
12536;BME280;6334;48.696;2.114;2022-11-02T03:46:53;100361.15;;;11.79;100.00
12536;BME280;6334;48.696;2.114;2022-11-02T03:49:24;100366.31;;;11.74;100.00
12536;BME280;6334;48.696;2.114;2022-11-02T03:52:04;100371.80;;;11.79;100.00
12536;BME280;6334;48.696;2.114;2022-11-02T03:56:21;100375.56;;;11.78;100.00
12536;BME280;6334;48.696;2.114;2022-11-02T03:59:07;100366.37;;;11.68;100.00
12536;BME280;6334;48.696;2.114;2022-11-02T04:01:39;100306.11;;;11.34;100.00
12536;BME280;6334;48.696;2.114;2022-11-02T04:05:55;100389.42;;;11.68;100.00
12536;BME280;6334;48.696;2.114;2022-11-02T04:08:36;100389.06;;;11.71;100.00
12536;BME280;6334;48.696;2.114;2022-11-02T04:11:05;100386.91;;;11.82;100.00
12536;BME280;6334;48.696;2.114;2022-11-02T04:14:47;100396.09;;;11.71;100.00
12536;BME280;6334;48.696;2.114;2022-11-02T04:17:38;100399.86;;;11.65;100.00
12536;BME280;6334;48.696;2.114;2022-11-02T04:22:42;100367.11;;;11.51;100.00
12536;BME280;6334;48.696;2.114;2022-11-02T04:26:45;100408.97;;;11.67;100.00
12536;BME280;6334;48.696;2.114;2022-11-02T04:29:20;100410.70;;;11.64;100.00
12536;BME280;6334;48.696;2.114;2022-11-02T04:32:48;100365.11;;;11.08;100.00
12536;BME280;6334;48.696;2.114;2022-11-02T04:35:36;100413.66;;;11.59;100.00
12536;BME280;6334;48.696;2.114;2022-11-02T04:40:28;100421.33;;;11.56;100.00
12536;BME280;6334;48.696;2.114;2022-11-02T04:43:37;100424.88;;;11.48;100.00
12536;BME280;6334;48.696;2.114;2022-11-02T04:46:06;100430.69;;;11.49;100.00
12536;BME280;6334;48.696;2.114;2022-11-02T04:48:36;100431.80;;;11.40;100.00
12536;BME280;6334;48.696;2.114;2022-11-02T04:53:01;100448.86;;;11.42;100.00
12536;BME280;6334;48.696;2.114;2022-11-02T04:57:36;100451.73;;;11.68;100.00
12536;BME280;6334;48.696;2.114;2022-11-02T05:01:34;100443.70;;;11.34;100.00
12536;BME280;6334;48.696;2.114;2022-11-02T05:04:04;100457.31;;;11.54;100.00
12536;BME280;6334;48.696;2.114;2022-11-02T05:07:06;100452.56;;;11.88;100.00
12536;BME280;6334;48.696;2.114;2022-11-02T05:09:56;100464.75;;;11.74;100.00
12536;BME280;6334;48.696;2.114;2022-11-02T05:12:26;100470.36;;;11.74;100.00
12536;BME280;6334;48.696;2.114;2022-11-02T05:14:56;100471.88;;;11.67;100.00
12536;BME280;6334;48.696;2.114;2022-11-02T05:17:26;100472.91;;;11.60;100.00
12536;BME280;6334;48.696;2.114;2022-11-02T05:19:56;100475.77;;;11.91;100.00
12536;BME280;6334;48.696;2.114;2022-11-02T05:22:29;100479.20;;;12.12;100.00
12536;BME280;6334;48.696;2.114;2022-11-02T05:25:00;100483.81;;;12.09;100.00
12536;BME280;6334;48.696;2.114;2022-11-02T05:27:30;100479.54;;;12.18;100.00
12536;BME280;6334;48.696;2.114;2022-11-02T05:30:07;100484.01;;;12.10;100.00
12536;BME280;6334;48.696;2.114;2022-11-02T05:32:37;100488.17;;;11.76;100.00
12536;BME280;6334;48.696;2.114;2022-11-02T05:36:19;100487.22;;;11.62;100.00
12536;BME280;6334;48.696;2.114;2022-11-02T05:38:54;100491.70;;;11.82;100.00
12536;BME280;6334;48.696;2.114;2022-11-02T05:41:24;100489.47;;;11.56;100.00
12536;BME280;6334;48.696;2.114;2022-11-02T05:44:00;100488.28;;;11.85;100.00
12536;BME280;6334;48.696;2.114;2022-11-02T05:46:41;100492.72;;;11.54;100.00
12536;BME280;6334;48.696;2.114;2022-11-02T05:49:16;100494.87;;;11.62;100.00
12536;BME280;6334;48.696;2.114;2022-11-02T05:51:46;100499.05;;;11.52;100.00
12536;BME280;6334;48.696;2.114;2022-11-02T05:54:16;100499.49;;;11.28;100.00
12536;BME280;6334;48.696;2.114;2022-11-02T05:57:25;100499.52;;;11.63;100.00
12536;BME280;6334;48.696;2.114;2022-11-02T06:00:01;100481.63;;;11.39;100.00
12536;BME280;6334;48.696;2.114;2022-11-02T06:02:32;100496.69;;;11.55;100.00
12536;BME280;6334;48.696;2.114;2022-11-02T06:07:20;100470.34;;;11.30;100.00
12536;BME280;6334;48.696;2.114;2022-11-02T06:09:50;100493.61;;;11.48;100.00
12536;BME280;6334;48.696;2.114;2022-11-02T06:12:21;100497.82;;;11.14;100.00
12536;BME280;6334;48.696;2.114;2022-11-02T06:15:43;100496.10;;;11.13;100.00
12536;BME280;6334;48.696;2.114;2022-11-02T06:18:21;100493.47;;;11.23;100.00
12536;BME280;6334;48.696;2.114;2022-11-02T06:21:16;100331.76;;;10.17;100.00
12536;BME280;6334;48.696;2.114;2022-11-02T06:23:49;100494.02;;;11.17;100.00
12536;BME280;6334;48.696;2.114;2022-11-02T06:26:19;100497.42;;;11.09;100.00
12536;BME280;6334;48.696;2.114;2022-11-02T06:28:50;100497.13;;;11.04;100.00
12536;BME280;6334;48.696;2.114;2022-11-02T06:31:20;100493.37;;;11.28;100.00
12536;BME280;6334;48.696;2.114;2022-11-02T06:33:55;100501.52;;;10.97;100.00
12536;BME280;6334;48.696;2.114;2022-11-02T06:36:24;100510.72;;;11.12;100.00
12536;BME280;6334;48.696;2.114;2022-11-02T06:38:54;100483.88;;;10.77;100.00
12536;BME280;6334;48.696;2.114;2022-11-02T06:41:24;100526.91;;;11.23;100.00
12536;BME280;6334;48.696;2.114;2022-11-02T06:44:22;100483.89;;;10.76;100.00
12536;BME280;6334;48.696;2.114;2022-11-02T06:46:51;100530.91;;;11.25;100.00
12536;BME280;6334;48.696;2.114;2022-11-02T06:50:37;100537.56;;;10.91;100.00
12536;BME280;6334;48.696;2.114;2022-11-02T06:54:42;100541.22;;;11.15;100.00
12536;BME280;6334;48.696;2.114;2022-11-02T06:57:51;100547.62;;;11.04;100.00
12536;BME280;6334;48.696;2.114;2022-11-02T07:00:27;100547.94;;;11.10;100.00
12536;BME280;6334;48.696;2.114;2022-11-02T07:03:17;100549.33;;;11.25;100.00
12536;BME280;6334;48.696;2.114;2022-11-02T07:05:52;100553.17;;;11.36;100.00
12536;BME280;6334;48.696;2.114;2022-11-02T07:08:28;100549.19;;;11.32;100.00
12536;BME280;6334;48.696;2.114;2022-11-02T07:14:14;100426.02;;;10.80;100.00
12536;BME280;6334;48.696;2.114;2022-11-02T07:16:45;100563.92;;;11.48;100.00
12536;BME280;6334;48.696;2.114;2022-11-02T07:20:14;100563.38;;;11.64;100.00
12536;BME280;6334;48.696;2.114;2022-11-02T07:22:54;100561.66;;;12.03;100.00
12536;BME280;6334;48.696;2.114;2022-11-02T07:25:23;100563.13;;;11.93;100.00
12536;BME280;6334;48.696;2.114;2022-11-02T07:27:54;100562.81;;;12.04;100.00
12536;BME280;6334;48.696;2.114;2022-11-02T07:30:28;100571.58;;;12.02;100.00
12536;BME280;6334;48.696;2.114;2022-11-02T07:32:57;100583.12;;;11.74;100.00
12536;BME280;6334;48.696;2.114;2022-11-02T07:35:26;100583.67;;;11.78;100.00
12536;BME280;6334;48.696;2.114;2022-11-02T07:38:03;100587.27;;;11.34;100.00
12536;BME280;6334;48.696;2.114;2022-11-02T07:40:32;100586.80;;;11.57;100.00
12536;BME280;6334;48.696;2.114;2022-11-02T07:43:02;100587.86;;;11.57;100.00
12536;BME280;6334;48.696;2.114;2022-11-02T07:45:31;100519.38;;;11.10;100.00
12536;BME280;6334;48.696;2.114;2022-11-02T07:48:01;100593.18;;;11.59;100.00
12536;BME280;6334;48.696;2.114;2022-11-02T07:50:37;100589.77;;;11.33;100.00
12536;BME280;6334;48.696;2.114;2022-11-02T07:53:06;100588.36;;;11.74;100.00
12536;BME280;6334;48.696;2.114;2022-11-02T07:55:36;100585.81;;;11.38;100.00
12536;BME280;6334;48.696;2.114;2022-11-02T07:58:07;100587.62;;;11.71;100.00
12536;BME280;6334;48.696;2.114;2022-11-02T08:00:36;100585.80;;;11.95;100.00
12536;BME280;6334;48.696;2.114;2022-11-02T08:03:07;100591.05;;;11.62;100.00
12536;BME280;6334;48.696;2.114;2022-11-02T08:05:39;100594.94;;;11.83;100.00
12536;BME280;6334;48.696;2.114;2022-11-02T08:08:12;100594.85;;;11.74;100.00
12536;BME280;6334;48.696;2.114;2022-11-02T08:10:41;100594.59;;;11.80;100.00
12536;BME280;6334;48.696;2.114;2022-11-02T08:13:13;100587.89;;;12.11;100.00
12536;BME280;6334;48.696;2.114;2022-11-02T08:15:40;100593.22;;;12.00;100.00
12536;BME280;6334;48.696;2.114;2022-11-02T08:18:13;100595.44;;;11.67;100.00
12536;BME280;6334;48.696;2.114;2022-11-02T08:21:12;100554.70;;;11.78;100.00
12536;BME280;6334;48.696;2.114;2022-11-02T08:23:42;100597.77;;;11.93;100.00
12536;BME280;6334;48.696;2.114;2022-11-02T08:26:14;100601.45;;;12.05;100.00
12536;BME280;6334;48.696;2.114;2022-11-02T08:28:44;100605.21;;;11.85;100.00
12536;BME280;6334;48.696;2.114;2022-11-02T08:31:14;100607.41;;;11.78;100.00
12536;BME280;6334;48.696;2.114;2022-11-02T08:34:24;100605.99;;;11.77;100.00
12536;BME280;6334;48.696;2.114;2022-11-02T08:37:30;100620.88;;;11.74;100.00
12536;BME280;6334;48.696;2.114;2022-11-02T08:39:59;100599.40;;;11.90;100.00
12536;BME280;6334;48.696;2.114;2022-11-02T08:42:30;100600.23;;;12.03;100.00
12536;BME280;6334;48.696;2.114;2022-11-02T08:45:05;100604.73;;;11.62;100.00
12536;BME280;6334;48.696;2.114;2022-11-02T08:47:38;100601.29;;;12.05;100.00
12536;BME280;6334;48.696;2.114;2022-11-02T08:50:04;100600.73;;;11.85;100.00
12536;BME280;6334;48.696;2.114;2022-11-02T08:52:34;100600.59;;;11.90;100.00
12536;BME280;6334;48.696;2.114;2022-11-02T08:55:06;100602.01;;;11.68;100.00
12536;BME280;6334;48.696;2.114;2022-11-02T08:57:48;100589.23;;;11.66;100.00
12536;BME280;6334;48.696;2.114;2022-11-02T09:00:19;100604.50;;;11.87;100.00
12536;BME280;6334;48.696;2.114;2022-11-02T09:03:04;100601.25;;;11.90;100.00
12536;BME280;6334;48.696;2.114;2022-11-02T09:05:36;100580.18;;;11.43;100.00
12536;BME280;6334;48.696;2.114;2022-11-02T09:08:11;100603.39;;;12.03;100.00
12536;BME280;6334;48.696;2.114;2022-11-02T09:10:38;100607.79;;;11.86;100.00
12536;BME280;6334;48.696;2.114;2022-11-02T09:13:09;100608.34;;;11.96;100.00
12536;BME280;6334;48.696;2.114;2022-11-02T09:15:37;100607.81;;;11.90;100.00
12536;BME280;6334;48.696;2.114;2022-11-02T09:18:07;100602.52;;;12.37;100.00
12536;BME280;6334;48.696;2.114;2022-11-02T09:20:38;100598.91;;;12.67;100.00
12536;BME280;6334;48.696;2.114;2022-11-02T09:23:07;100604.61;;;13.07;100.00
12536;BME280;6334;48.696;2.114;2022-11-02T09:25:39;100599.98;;;12.98;100.00
12536;BME280;6334;48.696;2.114;2022-11-02T09:28:09;100598.94;;;13.09;100.00
12536;BME280;6334;48.696;2.114;2022-11-02T09:30:44;100603.92;;;13.15;100.00
12536;BME280;6334;48.696;2.114;2022-11-02T09:33:15;100602.47;;;12.79;100.00
12536;BME280;6334;48.696;2.114;2022-11-02T09:35:46;100592.33;;;12.82;100.00
12536;BME280;6334;48.696;2.114;2022-11-02T09:38:15;100589.44;;;12.73;100.00
12536;BME280;6334;48.696;2.114;2022-11-02T09:40:58;100590.24;;;12.38;100.00
12536;BME280;6334;48.696;2.114;2022-11-02T09:46:14;100593.32;;;12.54;100.00
12536;BME280;6334;48.696;2.114;2022-11-02T09:48:40;100585.25;;;12.62;100.00
12536;BME280;6334;48.696;2.114;2022-11-02T09:51:17;100587.62;;;12.70;100.00
12536;BME280;6334;48.696;2.114;2022-11-02T09:56:17;100583.08;;;12.85;100.00
12536;BME280;6334;48.696;2.114;2022-11-02T09:58:56;100578.52;;;12.61;100.00
12536;BME280;6334;48.696;2.114;2022-11-02T10:07:11;100582.00;;;12.98;100.00
12536;BME280;6334;48.696;2.114;2022-11-02T10:12:22;100583.15;;;12.87;100.00
12536;BME280;6334;48.696;2.114;2022-11-02T10:17:24;100542.17;;;12.77;100.00
12536;BME280;6334;48.696;2.114;2022-11-02T10:19:56;100583.16;;;13.35;100.00
12536;BME280;6334;48.696;2.114;2022-11-02T10:22:33;100582.45;;;14.02;100.00
12536;BME280;6334;48.696;2.114;2022-11-02T10:25:09;100591.31;;;14.05;100.00
12536;BME280;6334;48.696;2.114;2022-11-02T10:28:17;100587.66;;;13.90;100.00
12536;BME280;6334;48.696;2.114;2022-11-02T10:30:50;100591.62;;;14.01;100.00
12536;BME280;6334;48.696;2.114;2022-11-02T10:33:40;100589.12;;;13.29;100.00
12536;BME280;6334;48.696;2.114;2022-11-02T10:36:38;100592.04;;;13.51;100.00
12536;BME280;6334;48.696;2.114;2022-11-02T10:39:39;100588.75;;;13.16;100.00
12536;BME280;6334;48.696;2.114;2022-11-02T10:42:39;100592.98;;;13.17;100.00
12536;BME280;6334;48.696;2.114;2022-11-02T10:45:10;100584.52;;;13.21;100.00
12536;BME280;6334;48.696;2.114;2022-11-02T10:48:01;100588.31;;;13.40;100.00
12536;BME280;6334;48.696;2.114;2022-11-02T10:53:15;100577.55;;;14.04;100.00
12536;BME280;6334;48.696;2.114;2022-11-02T10:55:57;100570.58;;;13.79;100.00
12536;BME280;6334;48.696;2.114;2022-11-02T10:58:26;100573.36;;;14.16;100.00
12536;BME280;6334;48.696;2.114;2022-11-02T11:01:07;100578.17;;;13.60;100.00
12536;BME280;6334;48.696;2.114;2022-11-02T11:06:33;100574.77;;;14.40;100.00
12536;BME280;6334;48.696;2.114;2022-11-02T11:09:04;100566.03;;;14.03;100.00
12536;BME280;6334;48.696;2.114;2022-11-02T11:11:36;100570.34;;;13.92;100.00
12536;BME280;6334;48.696;2.114;2022-11-02T11:16:51;100571.39;;;13.84;100.00
12536;BME280;6334;48.696;2.114;2022-11-02T11:21:50;100565.34;;;14.66;100.00
12536;BME280;6334;48.696;2.114;2022-11-02T11:24:27;100560.58;;;14.16;100.00
12536;BME280;6334;48.696;2.114;2022-11-02T11:29:44;100509.69;;;14.24;100.00
12536;BME280;6334;48.696;2.114;2022-11-02T11:32:16;100548.95;;;15.05;100.00
12536;BME280;6334;48.696;2.114;2022-11-02T11:34:46;100548.19;;;14.32;100.00
12536;BME280;6334;48.696;2.114;2022-11-02T11:37:20;100538.70;;;15.06;100.00
12536;BME280;6334;48.696;2.114;2022-11-02T11:39:56;100537.23;;;15.11;100.00
12536;BME280;6334;48.696;2.114;2022-11-02T11:42:26;100532.68;;;14.46;100.00
12536;BME280;6334;48.696;2.114;2022-11-02T11:45:16;100527.72;;;14.74;100.00
12536;BME280;6334;48.696;2.114;2022-11-02T11:47:40;100521.01;;;14.93;100.00
12536;BME280;6334;48.696;2.114;2022-11-02T11:50:28;100528.36;;;15.18;100.00
12536;BME280;6334;48.696;2.114;2022-11-02T11:58:41;100508.01;;;14.90;100.00
12536;BME280;6334;48.696;2.114;2022-11-02T12:02:15;100509.50;;;14.69;100.00
12536;BME280;6334;48.696;2.114;2022-11-02T12:05:15;100497.21;;;15.15;100.00
12536;BME280;6334;48.696;2.114;2022-11-02T12:15:28;100485.80;;;14.48;100.00
12536;BME280;6334;48.696;2.114;2022-11-02T12:18:32;100475.20;;;14.46;100.00
12536;BME280;6334;48.696;2.114;2022-11-02T12:21:06;100483.77;;;14.58;100.00
12536;BME280;6334;48.696;2.114;2022-11-02T12:26:47;100460.16;;;14.44;100.00
12536;BME280;6334;48.696;2.114;2022-11-02T12:35:18;100440.56;;;14.55;100.00
12536;BME280;6334;48.696;2.114;2022-11-02T12:41:01;100253.13;;;13.71;100.00
12536;BME280;6334;48.696;2.114;2022-11-02T12:43:41;100430.40;;;14.50;100.00
12536;BME280;6334;48.696;2.114;2022-11-02T12:52:18;100424.05;;;14.72;100.00
12536;BME280;6334;48.696;2.114;2022-11-02T12:54:51;100411.41;;;14.81;100.00
12536;BME280;6334;48.696;2.114;2022-11-02T12:57:24;100409.64;;;14.72;100.00
12536;BME280;6334;48.696;2.114;2022-11-02T13:00:00;100408.10;;;14.70;100.00
12536;BME280;6334;48.696;2.114;2022-11-02T13:05:21;100393.28;;;14.56;100.00
12536;BME280;6334;48.696;2.114;2022-11-02T13:08:03;100387.06;;;14.73;100.00
12536;BME280;6334;48.696;2.114;2022-11-02T13:10:29;100382.32;;;14.97;100.00
12536;BME280;6334;48.696;2.114;2022-11-02T13:13:00;100376.70;;;14.85;100.00
12536;BME280;6334;48.696;2.114;2022-11-02T13:15:30;100375.06;;;15.03;100.00
12536;BME280;6334;48.696;2.114;2022-11-02T13:18:04;100327.20;;;14.88;100.00
12536;BME280;6334;48.696;2.114;2022-11-02T13:20:55;100357.66;;;14.90;100.00
12536;BME280;6334;48.696;2.114;2022-11-02T13:26:05;100357.97;;;15.11;100.00
12536;BME280;6334;48.696;2.114;2022-11-02T13:31:05;100338.66;;;14.86;100.00
12536;BME280;6334;48.696;2.114;2022-11-02T13:33:46;100343.27;;;14.88;100.00
12536;BME280;6334;48.696;2.114;2022-11-02T13:36:14;100334.70;;;15.21;100.00
12536;BME280;6334;48.696;2.114;2022-11-02T13:41:52;100327.58;;;15.04;100.00
12536;BME280;6334;48.696;2.114;2022-11-02T13:50:16;100311.60;;;15.15;100.00
12536;BME280;6334;48.696;2.114;2022-11-02T13:52:49;100310.73;;;15.20;100.00
12536;BME280;6334;48.696;2.114;2022-11-02T13:55:17;100316.83;;;15.38;100.00
12536;BME280;6334;48.696;2.114;2022-11-02T13:57:52;100315.29;;;15.24;100.00
12536;BME280;6334;48.696;2.114;2022-11-02T14:02:56;100303.32;;;15.01;100.00
12536;BME280;6334;48.696;2.114;2022-11-02T14:05:28;100305.70;;;15.14;100.00
12536;BME280;6334;48.696;2.114;2022-11-02T14:08:03;100301.05;;;15.21;100.00
12536;BME280;6334;48.696;2.114;2022-11-02T14:10:32;100293.88;;;15.14;100.00
12536;BME280;6334;48.696;2.114;2022-11-02T14:13:02;100277.52;;;15.12;100.00
12536;BME280;6334;48.696;2.114;2022-11-02T14:15:36;100293.70;;;15.09;100.00
12536;BME280;6334;48.696;2.114;2022-11-02T14:25:49;100275.72;;;15.05;100.00
12536;BME280;6334;48.696;2.114;2022-11-02T14:36:53;100285.31;;;15.22;100.00
12536;BME280;6334;48.696;2.114;2022-11-02T14:39:42;100282.91;;;15.26;100.00
12536;BME280;6334;48.696;2.114;2022-11-02T14:42:15;100269.27;;;15.14;100.00
12536;BME280;6334;48.696;2.114;2022-11-02T14:47:32;100279.22;;;15.06;100.00
12536;BME280;6334;48.696;2.114;2022-11-02T14:50:14;100272.15;;;15.09;100.00
12536;BME280;6334;48.696;2.114;2022-11-02T14:55:29;100282.33;;;15.14;100.00
12536;BME280;6334;48.696;2.114;2022-11-02T14:58:13;100274.29;;;15.00;100.00
12536;BME280;6334;48.696;2.114;2022-11-02T15:08:59;100263.40;;;14.82;100.00
12536;BME280;6334;48.696;2.114;2022-11-02T15:19:41;100255.87;;;14.89;100.00
12536;BME280;6334;48.696;2.114;2022-11-02T15:25:11;100254.64;;;14.63;100.00
12536;BME280;6334;48.696;2.114;2022-11-02T15:27:39;100248.00;;;14.90;100.00
12536;BME280;6334;48.696;2.114;2022-11-02T15:30:16;100250.39;;;14.75;100.00
12536;BME280;6334;48.696;2.114;2022-11-02T15:32:48;100230.77;;;14.73;100.00
12536;BME280;6334;48.696;2.114;2022-11-02T15:35:22;100241.61;;;14.58;100.00
12536;BME280;6334;48.696;2.114;2022-11-02T15:38:03;100240.05;;;14.73;100.00
12536;BME280;6334;48.696;2.114;2022-11-02T15:41:14;100058.64;;;13.56;100.00
12536;BME280;6334;48.696;2.114;2022-11-02T15:44:00;100243.03;;;14.59;100.00
12536;BME280;6334;48.696;2.114;2022-11-02T15:49:56;100234.08;;;14.51;100.00
12536;BME280;6334;48.696;2.114;2022-11-02T15:57:57;100223.25;;;15.16;100.00
12536;BME280;6334;48.696;2.114;2022-11-02T16:00:22;100223.42;;;15.06;100.00
12536;BME280;6334;48.696;2.114;2022-11-02T16:03:03;100216.60;;;14.85;100.00
12536;BME280;6334;48.696;2.114;2022-11-02T16:05:43;100213.71;;;15.25;100.00
12536;BME280;6334;48.696;2.114;2022-11-02T16:08:03;100206.23;;;15.38;100.00
12536;BME280;6334;48.696;2.114;2022-11-02T16:10:34;100200.92;;;14.57;100.00
12536;BME280;6334;48.696;2.114;2022-11-02T16:15:36;100199.55;;;14.37;100.00
12536;BME280;6334;48.696;2.114;2022-11-02T16:18:19;100201.06;;;14.47;100.00
12536;BME280;6334;48.696;2.114;2022-11-02T16:20:36;100196.83;;;14.55;100.00
12536;BME280;6334;48.696;2.114;2022-11-02T16:23:06;100196.94;;;14.43;100.00
12536;BME280;6334;48.696;2.114;2022-11-02T16:25:45;100195.59;;;14.24;100.00
12536;BME280;6334;48.696;2.114;2022-11-02T16:28:35;100196.63;;;14.09;100.00
12536;BME280;6334;48.696;2.114;2022-11-02T16:36:31;100128.94;;;13.92;100.00
12536;BME280;6334;48.696;2.114;2022-11-02T16:39:00;100195.52;;;14.04;100.00
12536;BME280;6334;48.696;2.114;2022-11-02T16:41:33;100186.35;;;14.27;100.00
12536;BME280;6334;48.696;2.114;2022-11-02T16:46:54;100190.02;;;13.99;100.00
12536;BME280;6334;48.696;2.114;2022-11-02T16:49:23;100187.83;;;14.03;100.00
12536;BME280;6334;48.696;2.114;2022-11-02T16:54:36;100184.44;;;14.01;100.00
12536;BME280;6334;48.696;2.114;2022-11-02T16:57:06;100185.39;;;13.94;100.00
12536;BME280;6334;48.696;2.114;2022-11-02T16:59:33;100182.15;;;13.91;100.00
12536;BME280;6334;48.696;2.114;2022-11-02T17:02:02;100175.34;;;13.94;100.00
12536;BME280;6334;48.696;2.114;2022-11-02T17:04:32;100174.55;;;13.90;100.00
12536;BME280;6334;48.696;2.114;2022-11-02T17:07:18;100170.39;;;13.82;100.00
12536;BME280;6334;48.696;2.114;2022-11-02T17:09:48;100171.30;;;13.80;100.00
12536;BME280;6334;48.696;2.114;2022-11-02T17:12:17;100171.12;;;13.96;100.00
12536;BME280;6334;48.696;2.114;2022-11-02T17:14:53;100171.34;;;13.79;100.00
12536;BME280;6334;48.696;2.114;2022-11-02T17:22:57;100169.59;;;13.79;100.00
12536;BME280;6334;48.696;2.114;2022-11-02T17:25:27;100172.95;;;13.69;100.00
12536;BME280;6334;48.696;2.114;2022-11-02T17:27:58;100166.84;;;13.91;100.00
12536;BME280;6334;48.696;2.114;2022-11-02T17:35:46;100175.34;;;13.73;100.00
12536;BME280;6334;48.696;2.114;2022-11-02T17:38:15;100180.39;;;13.81;100.00
12536;BME280;6334;48.696;2.114;2022-11-02T17:40:46;100179.73;;;13.66;100.00
12536;BME280;6334;48.696;2.114;2022-11-02T17:43:18;100180.95;;;13.49;100.00